createdAt,value
2022-09-01T00:00:04.805Z,12.23
2022-09-01T00:00:29.211Z,8.73
2022-09-01T00:00:52.065Z,8.93
2022-09-01T00:01:18.705Z,9.65
2022-09-01T00:01:43.310Z,9.50
2022-09-01T00:02:08.984Z,9.20
2022-09-01T00:02:32.261Z,8.70
2022-09-01T00:02:55.468Z,8.77
2022-09-01T00:03:18.958Z,9.15
2022-09-01T00:03:43.236Z,9.43
2022-09-01T00:04:06.411Z,9.57
2022-09-01T00:04:29.396Z,9.55
2022-09-01T00:04:58.553Z,9.32
2022-09-01T00:05:22.024Z,9.20
2022-09-01T00:05:46.454Z,9.50
2022-09-01T00:06:10.484Z,9.27
2022-09-01T00:06:33.804Z,9.30
2022-09-01T00:07:00.063Z,9.35
2022-09-01T00:07:22.852Z,9.77
2022-09-01T00:07:45.743Z,9.27
2022-09-01T00:08:08.657Z,10.30
2022-09-01T00:08:31.572Z,9.65
2022-09-01T00:08:55.687Z,9.88
2022-09-01T00:09:19.398Z,9.30
2022-09-01T00:09:42.655Z,9.30
2022-09-01T00:10:09.240Z,9.30
2022-09-01T00:10:31.960Z,9.80
2022-09-01T00:10:54.970Z,10.40
2022-09-01T00:11:17.755Z,9.63
2022-09-01T00:11:41.320Z,9.80
2022-09-01T00:12:05.187Z,9.10
2022-09-01T00:12:28.235Z,9.25
2022-09-01T00:12:51.050Z,9.50
2022-09-01T00:13:13.865Z,9.38
2022-09-01T00:13:36.650Z,9.38
2022-09-01T00:14:02.212Z,9.65
2022-09-01T00:14:30.707Z,10.20
2022-09-01T00:14:53.940Z,9.30
2022-09-01T00:15:17.520Z,9.18
2022-09-01T00:15:40.494Z,9.10
2022-09-01T00:16:04.653Z,9.10
2022-09-01T00:16:27.925Z,9.70
2022-09-01T00:16:51.827Z,9.55
2022-09-01T00:17:15.457Z,8.73
2022-09-01T00:17:38.301Z,9.10
2022-09-01T00:18:01.197Z,9.20
2022-09-01T00:18:24.017Z,8.77
2022-09-01T00:18:49.910Z,9.73
2022-09-01T00:19:12.843Z,9.07
2022-09-01T00:19:36.865Z,9.20
2022-09-01T00:19:59.683Z,9.15
2022-09-01T00:20:22.533Z,9.15
2022-09-01T00:20:45.359Z,9.48
2022-09-01T00:21:08.275Z,9.60
2022-09-01T00:21:33.794Z,9.05
2022-09-01T00:21:56.859Z,9.35
2022-09-01T00:22:19.769Z,8.88
2022-09-01T00:22:42.549Z,9.40
2022-09-01T00:23:05.444Z,9.45
2022-09-01T00:23:28.365Z,9.50
2022-09-01T00:23:51.306Z,9.23
2022-09-01T00:24:15.457Z,9.23
2022-09-01T00:24:38.317Z,9.38
2022-09-01T00:25:02.304Z,9.27
2022-09-01T00:25:27.994Z,8.90
2022-09-01T00:25:50.925Z,9.73
2022-09-01T00:26:13.644Z,9.55
2022-09-01T00:26:36.419Z,9.53
2022-09-01T00:26:59.183Z,9.45
2022-09-01T00:27:22.257Z,9.48
2022-09-01T00:27:53.577Z,9.95
2022-09-01T00:28:16.324Z,9.38
2022-09-01T00:28:39.283Z,9.77
2022-09-01T00:29:03.104Z,9.25
2022-09-01T00:29:26.048Z,9.07
2022-09-01T00:29:49.003Z,8.82
2022-09-01T00:30:12.358Z,9.15
2022-09-01T00:30:35.120Z,9.57
2022-09-01T00:30:58.515Z,9.75
2022-09-01T00:31:21.538Z,9.32
2022-09-01T00:31:44.438Z,9.10
2022-09-01T00:32:07.326Z,9.15
2022-09-01T00:32:30.136Z,9.82
2022-09-01T00:32:53.046Z,9.70
2022-09-01T00:33:16.033Z,9.27
2022-09-01T00:33:38.853Z,9.35
2022-09-01T00:34:01.682Z,9.10
2022-09-01T00:34:24.482Z,8.70
2022-09-01T00:34:47.668Z,8.70
2022-09-01T00:35:11.578Z,8.57
2022-09-01T00:35:37.199Z,8.73
2022-09-01T00:36:00.312Z,9.43
2022-09-01T00:36:23.213Z,9.50
2022-09-01T00:36:49.192Z,9.55
2022-09-01T00:37:11.998Z,8.57
2022-09-01T00:37:34.771Z,9.20
2022-09-01T00:37:57.656Z,9.00
2022-09-01T00:38:20.748Z,8.90
2022-09-01T00:38:44.111Z,8.32
2022-09-01T00:39:07.752Z,9.05
2022-09-01T00:39:31.102Z,10.00
2022-09-01T00:39:53.821Z,9.52
2022-09-01T00:40:17.398Z,8.88
2022-09-01T00:40:41.935Z,9.18
2022-09-01T00:41:05.391Z,8.32
2022-09-01T00:41:29.681Z,8.73
2022-09-01T00:41:52.725Z,9.15
2022-09-01T00:42:15.641Z,9.43
2022-09-01T00:42:39.931Z,10.82
2022-09-01T00:43:10.896Z,9.18
2022-09-01T00:43:39.436Z,9.38
2022-09-01T00:44:03.031Z,9.82
2022-09-01T00:44:29.707Z,9.45
2022-09-01T00:44:54.027Z,9.20
2022-09-01T00:45:19.423Z,9.23
2022-09-01T00:45:44.586Z,9.02
2022-09-01T00:46:14.781Z,9.73
2022-09-01T00:46:49.818Z,8.98
2022-09-01T00:47:14.778Z,9.13
2022-09-01T00:47:37.727Z,9.30
2022-09-01T00:48:00.802Z,9.73
2022-09-01T00:48:23.754Z,9.48
2022-09-01T00:48:47.764Z,8.80
2022-09-01T00:49:12.384Z,9.10
2022-09-01T00:49:37.186Z,9.50
2022-09-01T00:49:59.889Z,8.68
2022-09-01T00:50:25.525Z,9.27
2022-09-01T00:50:50.800Z,9.10
2022-09-01T00:51:17.394Z,9.07
2022-09-01T00:51:41.333Z,9.52
2022-09-01T00:52:06.778Z,8.98
2022-09-01T00:52:31.082Z,8.63
2022-09-01T00:52:54.015Z,9.40
2022-09-01T00:53:16.879Z,9.00
2022-09-01T00:53:39.939Z,9.05
2022-09-01T00:54:02.972Z,8.93
2022-09-01T00:54:27.836Z,8.30
2022-09-01T00:54:53.025Z,8.05
2022-09-01T00:55:16.855Z,8.32
2022-09-01T00:55:41.325Z,8.50
2022-09-01T00:56:04.415Z,8.65
2022-09-01T00:56:27.119Z,8.60
2022-09-01T00:56:57.322Z,8.77
2022-09-01T00:57:21.180Z,8.63
2022-09-01T00:57:46.849Z,8.25
2022-09-01T00:58:19.620Z,8.25
2022-09-01T00:58:42.870Z,8.43
2022-09-01T00:59:07.424Z,8.50
2022-09-01T00:59:30.321Z,8.38
2022-09-01T00:59:57.202Z,8.20
2022-09-01T01:00:21.660Z,7.97
2022-09-01T01:00:44.425Z,8.10
2022-09-01T01:01:07.637Z,8.57
2022-09-01T01:01:30.635Z,7.82
2022-09-01T01:01:53.547Z,8.00
2022-09-01T01:02:16.940Z,8.13
2022-09-01T01:02:40.955Z,8.30
2022-09-01T01:03:04.046Z,8.35
2022-09-01T01:03:27.250Z,8.35
2022-09-01T01:03:50.091Z,8.55
2022-09-01T01:04:15.281Z,8.43
2022-09-01T01:04:38.076Z,8.50
2022-09-01T01:05:00.951Z,8.07
2022-09-01T01:05:24.695Z,8.45
2022-09-01T01:05:54.491Z,9.20
2022-09-01T01:06:17.351Z,8.18
2022-09-01T01:06:41.202Z,8.43
2022-09-01T01:07:04.085Z,8.75
2022-09-01T01:07:27.553Z,8.55
2022-09-01T01:07:50.294Z,9.40
2022-09-01T01:08:13.060Z,9.45
2022-09-01T01:08:37.325Z,8.57
2022-09-01T01:09:01.020Z,8.43
2022-09-01T01:09:23.740Z,8.65
2022-09-01T01:09:46.561Z,8.75
2022-09-01T01:10:12.044Z,8.48
2022-09-01T01:10:37.345Z,9.00
2022-09-01T01:11:02.811Z,8.50
2022-09-01T01:11:26.285Z,8.63
2022-09-01T01:11:49.351Z,8.50
2022-09-01T01:12:18.817Z,8.35
2022-09-01T01:12:43.430Z,8.95
2022-09-01T01:13:09.009Z,8.15
2022-09-01T01:13:36.259Z,8.90
2022-09-01T01:14:05.972Z,8.63
2022-09-01T01:14:32.036Z,8.50
2022-09-01T01:14:55.180Z,8.85
2022-09-01T01:15:18.471Z,9.35
2022-09-01T01:15:43.896Z,8.70
2022-09-01T01:16:08.389Z,8.27
2022-09-01T01:16:31.387Z,8.50
2022-09-01T01:16:55.656Z,8.50
2022-09-01T01:17:18.926Z,8.60
2022-09-01T01:17:41.739Z,8.90
2022-09-01T01:18:04.674Z,9.20
2022-09-01T01:18:27.480Z,9.10
2022-09-01T01:18:50.425Z,8.90
2022-09-01T01:19:39.035Z,8.52
2022-09-01T01:20:20.740Z,10.25
2022-09-01T01:21:02.632Z,7.90
2022-09-01T01:21:48.390Z,8.10
2022-09-01T01:22:41.820Z,8.05
2022-09-01T01:23:07.910Z,8.32
2022-09-01T01:23:37.505Z,8.63
2022-09-01T01:24:03.337Z,8.20
2022-09-01T01:24:28.570Z,8.52
2022-09-01T01:24:52.432Z,8.65
2022-09-01T01:25:15.792Z,8.60
2022-09-01T01:25:40.343Z,9.73
2022-09-01T01:26:03.088Z,8.73
2022-09-01T01:26:26.757Z,9.00
2022-09-01T01:26:49.512Z,8.73
2022-09-01T01:27:12.836Z,8.43
2022-09-01T01:27:39.965Z,8.30
2022-09-01T01:28:09.181Z,8.55
2022-09-01T01:28:37.345Z,7.97
2022-09-01T01:29:03.328Z,8.85
2022-09-01T01:29:26.616Z,8.20
2022-09-01T01:29:50.624Z,8.77
2022-09-01T01:30:14.298Z,9.68
2022-09-01T01:30:37.389Z,9.02
2022-09-01T01:31:02.242Z,8.85
2022-09-01T01:31:25.715Z,8.30
2022-09-01T01:31:49.969Z,7.97
2022-09-01T01:32:13.510Z,8.35
2022-09-01T01:32:36.411Z,8.10
2022-09-01T01:33:00.059Z,8.43
2022-09-01T01:33:24.484Z,8.13
2022-09-01T01:33:49.180Z,7.88
2022-09-01T01:34:12.391Z,8.10
2022-09-01T01:34:35.121Z,8.30
2022-09-01T01:34:57.967Z,8.48
2022-09-01T01:35:22.047Z,9.68
2022-09-01T01:35:45.186Z,8.52
2022-09-01T01:36:08.145Z,8.77
2022-09-01T01:36:32.867Z,8.50
2022-09-01T01:37:00.091Z,8.27
2022-09-01T01:37:25.655Z,8.30
2022-09-01T01:37:50.622Z,7.97
2022-09-01T01:38:16.602Z,8.00
2022-09-01T01:38:39.908Z,8.25
2022-09-01T01:39:05.672Z,8.77
2022-09-01T01:39:29.869Z,8.65
2022-09-01T01:39:52.954Z,8.13
2022-09-01T01:40:16.784Z,8.10
2022-09-01T01:40:40.801Z,8.20
2022-09-01T01:41:06.473Z,8.10
2022-09-01T01:41:30.167Z,8.40
2022-09-01T01:41:55.072Z,8.52
2022-09-01T01:42:18.151Z,8.00
2022-09-01T01:42:41.187Z,8.73
2022-09-01T01:43:06.848Z,8.20
2022-09-01T01:43:30.009Z,7.95
2022-09-01T01:43:52.868Z,8.13
2022-09-01T01:44:16.423Z,7.90
2022-09-01T01:44:39.918Z,7.45
2022-09-01T01:45:03.902Z,7.60
2022-09-01T01:45:26.778Z,7.95
2022-09-01T01:45:52.404Z,8.05
2022-09-01T01:46:19.341Z,7.82
2022-09-01T01:46:45.276Z,7.20
2022-09-01T01:47:13.180Z,6.82
2022-09-01T01:47:35.961Z,7.45
2022-09-01T01:47:58.915Z,7.40
2022-09-01T01:48:25.991Z,7.10
2022-09-01T01:48:48.841Z,7.63
2022-09-01T01:49:13.516Z,7.45
2022-09-01T01:49:36.412Z,8.70
2022-09-01T01:49:59.342Z,7.88
2022-09-01T01:50:22.812Z,8.32
2022-09-01T01:50:49.522Z,8.93
2022-09-01T01:51:14.158Z,6.88
2022-09-01T01:51:37.222Z,7.25
2022-09-01T01:52:00.222Z,7.05
2022-09-01T01:52:26.857Z,6.97
2022-09-01T01:52:53.191Z,6.20
2022-09-01T01:53:22.029Z,6.28
2022-09-01T01:53:45.522Z,5.53
2022-09-01T01:54:08.264Z,7.05
2022-09-01T01:54:32.867Z,5.70
2022-09-01T01:54:56.249Z,5.80
2022-09-01T01:55:19.568Z,5.82
2022-09-01T01:55:43.969Z,5.60
2022-09-01T01:56:09.199Z,5.20
2022-09-01T01:56:33.188Z,5.20
2022-09-01T01:56:58.183Z,5.57
2022-09-01T01:57:21.161Z,6.43
2022-09-01T01:57:49.379Z,5.40
2022-09-01T01:58:12.734Z,6.40
2022-09-01T01:58:36.396Z,5.63
2022-09-01T01:58:59.597Z,5.55
2022-09-01T01:59:25.016Z,5.60
2022-09-01T01:59:47.782Z,5.40
2022-09-01T02:00:13.107Z,5.57
2022-09-01T02:00:37.037Z,5.38
2022-09-01T02:00:59.829Z,6.38
2022-09-01T02:01:25.459Z,5.95
2022-09-01T02:01:49.490Z,4.75
2022-09-01T02:02:13.156Z,5.35
2022-09-01T02:02:38.387Z,5.03
2022-09-01T02:03:01.472Z,5.03
2022-09-01T02:03:26.299Z,4.97
2022-09-01T02:03:52.851Z,5.43
2022-09-01T02:04:17.167Z,5.18
2022-09-01T02:04:40.941Z,5.85
2022-09-01T02:05:04.042Z,5.78
2022-09-01T02:05:32.379Z,5.78
2022-09-01T02:05:55.657Z,5.68
2022-09-01T02:06:20.068Z,5.30
2022-09-01T02:06:45.993Z,6.40
2022-09-01T02:07:12.062Z,5.45
2022-09-01T02:07:37.879Z,5.80
2022-09-01T02:08:04.116Z,5.70
2022-09-01T02:08:27.737Z,5.57
2022-09-01T02:08:50.768Z,5.45
2022-09-01T02:09:13.997Z,6.20
2022-09-01T02:09:39.761Z,5.72
2022-09-01T02:10:02.648Z,6.32
2022-09-01T02:10:26.682Z,6.20
2022-09-01T02:10:50.930Z,6.50
2022-09-01T02:11:17.651Z,5.72
2022-09-01T02:11:40.497Z,6.70
2022-09-01T02:12:03.391Z,7.05
2022-09-01T02:12:26.291Z,7.50
2022-09-01T02:12:49.457Z,5.93
2022-09-01T02:13:16.686Z,5.70
2022-09-01T02:13:40.399Z,5.95
2022-09-01T02:14:03.259Z,6.82
2022-09-01T02:14:26.111Z,5.90
2022-09-01T02:14:50.457Z,6.10
2022-09-01T02:15:13.351Z,6.30
2022-09-01T02:15:44.615Z,6.72
2022-09-01T02:16:12.175Z,6.00
2022-09-01T02:16:35.842Z,6.13
2022-09-01T02:16:58.668Z,5.82
2022-09-01T02:17:22.716Z,6.40
2022-09-01T02:17:47.441Z,6.40
2022-09-01T02:18:10.197Z,6.43
2022-09-01T02:18:37.109Z,6.82
2022-09-01T02:19:00.311Z,6.55
2022-09-01T02:19:23.139Z,6.45
2022-09-01T02:19:47.725Z,6.68
2022-09-01T02:20:10.739Z,6.10
2022-09-01T02:20:33.574Z,6.68
2022-09-01T02:20:59.085Z,6.88
2022-09-01T02:21:23.271Z,6.78
2022-09-01T02:21:56.040Z,6.35
2022-09-01T02:22:21.982Z,6.60
2022-09-01T02:22:44.840Z,6.47
2022-09-01T02:23:11.625Z,7.00
2022-09-01T02:23:34.336Z,6.50
2022-09-01T02:24:01.218Z,6.50
2022-09-01T02:24:31.897Z,6.20
2022-09-01T02:24:57.711Z,6.35
2022-09-01T02:25:20.752Z,6.85
2022-09-01T02:26:14.626Z,6.90
2022-09-01T02:26:31.574Z,6.97
2022-09-01T02:26:58.481Z,6.68
2022-09-01T02:27:23.466Z,6.55
2022-09-01T02:27:49.658Z,7.13
2022-09-01T02:28:16.244Z,8.32
2022-09-01T02:28:42.672Z,8.75
2022-09-01T02:29:07.614Z,6.65
2022-09-01T02:29:30.845Z,7.20
2022-09-01T02:30:00.535Z,7.03
2022-09-01T02:30:23.929Z,7.25
2022-09-01T02:30:49.586Z,7.55
2022-09-01T02:31:12.657Z,7.80
2022-09-01T02:31:39.435Z,7.88
2022-09-01T02:32:02.330Z,7.50
2022-09-01T02:32:25.585Z,7.25
2022-09-01T02:32:48.534Z,7.47
2022-09-01T02:33:11.665Z,7.32
2022-09-01T02:33:36.235Z,7.00
2022-09-01T02:33:59.188Z,9.45
2022-09-01T02:34:24.358Z,7.35
2022-09-01T02:34:49.541Z,7.07
2022-09-01T02:35:13.816Z,6.45
2022-09-01T02:35:38.182Z,5.97
2022-09-01T02:36:02.461Z,6.47
2022-09-01T02:36:25.824Z,5.82
2022-09-01T02:36:52.801Z,5.88
2022-09-01T02:37:16.123Z,6.60
2022-09-01T02:37:39.936Z,6.38
2022-09-01T02:38:02.781Z,6.22
2022-09-01T02:38:30.021Z,5.88
2022-09-01T02:38:56.620Z,6.10
2022-09-01T02:39:21.496Z,4.70
2022-09-01T02:39:44.292Z,4.75
2022-09-01T02:40:11.106Z,4.95
2022-09-01T02:40:33.973Z,4.90
2022-09-01T02:40:57.166Z,5.05
2022-09-01T02:41:23.183Z,4.32
2022-09-01T02:41:46.330Z,4.25
2022-09-01T02:42:10.770Z,6.03
2022-09-01T02:42:33.591Z,4.45
2022-09-01T02:42:56.517Z,3.92
2022-09-01T02:43:20.527Z,3.53
2022-09-01T02:43:46.453Z,3.65
2022-09-01T02:44:11.927Z,5.28
2022-09-01T02:44:36.322Z,4.03
2022-09-01T02:45:09.360Z,3.70
2022-09-01T02:45:32.725Z,3.60
2022-09-01T02:45:57.815Z,5.97
2022-09-01T02:46:24.600Z,4.20
2022-09-01T02:46:51.071Z,3.95
2022-09-01T02:47:14.455Z,4.30
2022-09-01T02:47:37.815Z,3.78
2022-09-01T02:48:00.838Z,4.13
2022-09-01T02:48:26.782Z,4.40
2022-09-01T02:48:51.584Z,4.40
2022-09-01T02:49:19.970Z,5.28
2022-09-01T02:49:43.257Z,4.30
2022-09-01T02:50:07.265Z,4.70
2022-09-01T02:50:31.306Z,4.30
2022-09-01T02:50:54.052Z,3.95
2022-09-01T02:51:17.896Z,3.97
2022-09-01T02:51:41.287Z,4.30
2022-09-01T02:52:06.482Z,4.00
2022-09-01T02:52:35.112Z,4.40
2022-09-01T02:53:03.359Z,4.80
2022-09-01T02:53:26.935Z,4.45
2022-09-01T02:53:53.047Z,4.47
2022-09-01T02:54:19.416Z,4.70
2022-09-01T02:54:44.210Z,5.07
2022-09-01T02:55:09.297Z,4.88
2022-09-01T02:55:32.071Z,4.80
2022-09-01T02:55:57.961Z,5.43
2022-09-01T02:56:25.388Z,5.32
2022-09-01T02:56:48.788Z,5.43
2022-09-01T02:57:11.799Z,5.43
2022-09-01T02:57:34.693Z,4.35
2022-09-01T02:57:58.826Z,4.50
2022-09-01T02:58:24.990Z,3.90
2022-09-01T02:58:51.954Z,5.43
2022-09-01T02:59:15.830Z,3.90
2022-09-01T02:59:43.593Z,3.65
2022-09-01T03:00:20.899Z,4.47
2022-09-01T03:00:44.733Z,3.78
2022-09-01T03:01:11.857Z,4.40
2022-09-01T03:01:34.761Z,4.10
2022-09-01T03:01:57.798Z,4.03
2022-09-01T03:02:21.966Z,4.93
2022-09-01T03:02:45.663Z,4.72
2022-09-01T03:03:17.691Z,4.53
2022-09-01T03:03:40.591Z,4.30
2022-09-01T03:04:06.012Z,5.27
2022-09-01T03:04:30.048Z,5.85
2022-09-01T03:04:55.631Z,4.55
2022-09-01T03:05:25.396Z,4.65
2022-09-01T03:05:48.477Z,4.50
2022-09-01T03:06:13.017Z,4.80
2022-09-01T03:06:36.698Z,4.57
2022-09-01T03:06:59.520Z,4.68
2022-09-01T03:07:24.048Z,5.53
2022-09-01T03:07:46.774Z,4.63
2022-09-01T03:08:10.628Z,4.72
2022-09-01T03:08:36.723Z,4.55
2022-09-01T03:09:00.460Z,5.03
2022-09-01T03:09:23.244Z,4.70
2022-09-01T03:09:46.125Z,4.63
2022-09-01T03:10:10.534Z,5.85
2022-09-01T03:10:35.767Z,6.60
2022-09-01T03:11:01.683Z,5.13
2022-09-01T03:11:24.744Z,4.38
2022-09-01T03:11:49.251Z,4.55
2022-09-01T03:12:12.129Z,4.40
2022-09-01T03:12:35.265Z,4.95
2022-09-01T03:13:00.069Z,4.85
2022-09-01T03:13:24.080Z,4.60
2022-09-01T03:13:46.872Z,5.30
2022-09-01T03:14:09.576Z,5.07
2022-09-01T03:14:32.855Z,6.35
2022-09-01T03:14:55.641Z,5.78
2022-09-01T03:15:18.460Z,4.30
2022-09-01T03:15:41.516Z,4.30
2022-09-01T03:16:05.382Z,4.50
2022-09-01T03:16:30.511Z,4.50
2022-09-01T03:16:54.093Z,5.82
2022-09-01T03:17:16.927Z,7.47
2022-09-01T03:17:40.997Z,5.90
2022-09-01T03:18:04.680Z,4.57
2022-09-01T03:18:27.514Z,4.80
2022-09-01T03:18:50.780Z,5.75
2022-09-01T03:19:15.183Z,5.45
2022-09-01T03:19:42.302Z,4.80
2022-09-01T03:20:07.600Z,4.47
2022-09-01T03:20:34.485Z,4.95
2022-09-01T03:20:57.839Z,4.70
2022-09-01T03:21:21.051Z,5.00
2022-09-01T03:21:44.876Z,4.95
2022-09-01T03:22:07.985Z,7.45
2022-09-01T03:22:31.038Z,7.05
2022-09-01T03:22:54.921Z,5.68
2022-09-01T03:23:19.460Z,4.88
2022-09-01T03:23:42.787Z,4.90
2022-09-01T03:24:05.907Z,4.50
2022-09-01T03:24:28.917Z,4.88
2022-09-01T03:24:51.800Z,5.18
2022-09-01T03:25:17.001Z,5.53
2022-09-01T03:25:39.840Z,4.95
2022-09-01T03:26:02.816Z,4.88
2022-09-01T03:26:25.736Z,5.05
2022-09-01T03:26:49.933Z,5.28
2022-09-01T03:27:13.604Z,5.10
2022-09-01T03:27:36.501Z,4.68
2022-09-01T03:28:03.462Z,4.75
2022-09-01T03:28:26.393Z,4.75
2022-09-01T03:28:49.364Z,4.53
2022-09-01T03:29:12.369Z,4.32
2022-09-01T03:29:36.908Z,5.00
2022-09-01T03:29:59.985Z,4.70
2022-09-01T03:30:22.933Z,4.88
2022-09-01T03:30:46.740Z,4.68
2022-09-01T03:31:09.675Z,4.40
2022-09-01T03:31:32.498Z,5.03
2022-09-01T03:31:55.448Z,5.03
2022-09-01T03:32:19.402Z,5.13
2022-09-01T03:32:42.163Z,5.13
2022-09-01T03:33:05.049Z,5.30
2022-09-01T03:33:28.383Z,4.47
2022-09-01T03:33:51.237Z,5.40
2022-09-01T03:34:21.040Z,5.05
2022-09-01T03:34:44.013Z,5.20
2022-09-01T03:35:07.197Z,5.22
2022-09-01T03:35:32.061Z,4.18
2022-09-01T03:35:54.964Z,4.30
2022-09-01T03:36:21.047Z,4.05
2022-09-01T03:36:50.665Z,4.57
2022-09-01T03:37:13.809Z,4.45
2022-09-01T03:37:37.275Z,4.90
2022-09-01T03:38:00.300Z,6.03
2022-09-01T03:38:24.695Z,4.40
2022-09-01T03:38:49.196Z,4.20
2022-09-01T03:39:16.634Z,5.75
2022-09-01T03:39:39.793Z,5.10
2022-09-01T03:40:05.445Z,4.95
2022-09-01T03:40:32.881Z,4.93
2022-09-01T03:41:02.104Z,4.95
2022-09-01T03:41:26.227Z,5.30
2022-09-01T03:41:49.000Z,5.38
2022-09-01T03:42:12.690Z,4.82
2022-09-01T03:42:35.669Z,4.80
2022-09-01T03:42:58.514Z,4.43
2022-09-01T03:43:25.068Z,4.60
2022-09-01T03:43:48.394Z,4.70
2022-09-01T03:44:12.254Z,5.05
2022-09-01T03:44:36.379Z,4.68
2022-09-01T03:44:59.269Z,4.78
2022-09-01T03:45:22.812Z,4.97
2022-09-01T03:45:46.500Z,4.57
2022-09-01T03:46:10.519Z,5.38
2022-09-01T03:46:36.862Z,4.40
2022-09-01T03:47:01.551Z,4.45
2022-09-01T03:47:25.215Z,5.28
2022-09-01T03:47:48.358Z,5.15
2022-09-01T03:48:11.071Z,4.55
2022-09-01T03:48:33.896Z,4.60
2022-09-01T03:49:07.111Z,5.10
2022-09-01T03:49:30.203Z,4.85
2022-09-01T03:49:55.136Z,4.50
2022-09-01T03:50:22.471Z,4.57
2022-09-01T03:50:46.340Z,4.78
2022-09-01T03:51:09.981Z,5.40
2022-09-01T03:51:32.677Z,5.03
2022-09-01T03:51:56.677Z,4.80
2022-09-01T03:52:19.413Z,5.00
2022-09-01T03:52:43.507Z,6.47
2022-09-01T03:53:06.442Z,5.32
2022-09-01T03:53:30.256Z,5.20
2022-09-01T03:53:59.046Z,4.43
2022-09-01T03:54:28.481Z,4.82
2022-09-01T03:54:54.301Z,4.70
2022-09-01T03:55:19.891Z,4.88
2022-09-01T03:55:45.264Z,4.68
2022-09-01T03:56:09.177Z,4.70
2022-09-01T03:56:32.055Z,5.07
2022-09-01T03:56:55.226Z,5.78
2022-09-01T03:57:19.423Z,5.72
2022-09-01T03:57:42.969Z,5.63
2022-09-01T03:58:10.032Z,5.35
2022-09-01T03:58:33.167Z,5.80
2022-09-01T03:58:57.046Z,4.82
2022-09-01T03:59:22.782Z,5.00
2022-09-01T03:59:45.754Z,5.60
2022-09-01T04:00:20.473Z,5.07
2022-09-01T04:00:48.691Z,5.05
2022-09-01T04:01:13.745Z,5.47
2022-09-01T04:01:43.917Z,6.30
2022-09-01T04:02:07.968Z,4.82
2022-09-01T04:02:31.055Z,5.68
2022-09-01T04:02:57.843Z,5.47
2022-09-01T04:03:28.783Z,5.53
2022-09-01T04:03:53.188Z,5.07
2022-09-01T04:04:16.767Z,5.30
2022-09-01T04:04:39.632Z,4.75
2022-09-01T04:05:05.277Z,4.78
2022-09-01T04:05:34.003Z,6.00
2022-09-01T04:05:57.024Z,4.95
2022-09-01T04:06:21.396Z,4.85
2022-09-01T04:06:47.443Z,5.07
2022-09-01T04:07:10.291Z,5.00
2022-09-01T04:07:42.401Z,5.20
2022-09-01T04:08:07.102Z,5.00
2022-09-01T04:08:32.935Z,5.07
2022-09-01T04:09:03.132Z,4.65
2022-09-01T04:09:26.371Z,4.70
2022-09-01T04:09:49.197Z,4.82
2022-09-01T04:10:12.261Z,5.53
2022-09-01T04:10:35.912Z,5.60
2022-09-01T04:11:03.010Z,4.63
2022-09-01T04:11:26.661Z,4.97
2022-09-01T04:11:51.916Z,5.78
2022-09-01T04:12:17.552Z,4.68
2022-09-01T04:12:40.318Z,4.85
2022-09-01T04:13:03.528Z,5.93
2022-09-01T04:13:28.298Z,4.97
2022-09-01T04:13:51.233Z,4.30
2022-09-01T04:14:14.217Z,4.40
2022-09-01T04:14:37.417Z,4.97
2022-09-01T04:15:00.877Z,4.90
2022-09-01T04:15:23.741Z,4.93
2022-09-01T04:15:48.317Z,5.43
2022-09-01T04:16:38.375Z,6.50
2022-09-01T04:17:19.896Z,5.05
2022-09-01T04:18:01.490Z,5.00
2022-09-01T04:18:24.437Z,5.30
2022-09-01T04:18:51.475Z,4.90
2022-09-01T04:19:20.954Z,5.70
2022-09-01T04:19:43.944Z,6.63
2022-09-01T04:20:09.484Z,6.28
2022-09-01T04:20:40.214Z,6.15
2022-09-01T04:21:03.105Z,7.45
2022-09-01T04:21:26.626Z,6.47
2022-09-01T04:21:53.889Z,6.03
2022-09-01T04:22:17.814Z,6.05
2022-09-01T04:22:40.646Z,6.80
2022-09-01T04:23:11.276Z,6.57
2022-09-01T04:23:35.113Z,7.25
2022-09-01T04:24:05.351Z,6.70
2022-09-01T04:24:31.251Z,7.50
2022-09-01T04:24:54.017Z,7.20
2022-09-01T04:25:17.386Z,6.35
2022-09-01T04:25:41.711Z,5.93
2022-09-01T04:26:10.140Z,7.07
2022-09-01T04:26:34.142Z,6.22
2022-09-01T04:26:59.096Z,5.80
2022-09-01T04:27:26.617Z,5.60
2022-09-01T04:27:50.630Z,5.78
2022-09-01T04:28:17.811Z,6.35
2022-09-01T04:28:41.738Z,5.68
2022-09-01T04:29:04.608Z,6.38
2022-09-01T04:29:27.777Z,7.60
2022-09-01T04:29:51.454Z,7.45
2022-09-01T04:30:16.067Z,6.15
2022-09-01T04:30:40.867Z,5.85
2022-09-01T04:31:09.668Z,5.95
2022-09-01T04:31:32.417Z,6.22
2022-09-01T04:31:55.539Z,6.70
2022-09-01T04:32:21.969Z,7.30
2022-09-01T04:32:46.998Z,5.68
2022-09-01T04:33:10.597Z,5.93
2022-09-01T04:33:39.085Z,6.93
2022-09-01T04:34:02.453Z,6.47
2022-09-01T04:34:26.473Z,6.57
2022-09-01T04:34:49.841Z,7.75
2022-09-01T04:35:17.220Z,5.88
2022-09-01T04:35:40.405Z,6.10
2022-09-01T04:36:04.041Z,7.90
2022-09-01T04:36:28.744Z,6.75
2022-09-01T04:36:55.559Z,7.10
2022-09-01T04:37:20.545Z,6.00
2022-09-01T04:37:43.779Z,6.28
2022-09-01T04:38:08.531Z,5.93
2022-09-01T04:38:31.272Z,5.90
2022-09-01T04:38:55.119Z,5.30
2022-09-01T04:39:18.075Z,4.85
2022-09-01T04:39:52.564Z,4.80
2022-09-01T04:40:18.877Z,6.80
2022-09-01T04:40:42.573Z,5.00
2022-09-01T04:41:06.837Z,5.13
2022-09-01T04:41:32.941Z,4.60
2022-09-01T04:41:55.928Z,4.70
2022-09-01T04:42:19.090Z,6.25
2022-09-01T04:42:43.119Z,5.07
2022-09-01T04:43:06.023Z,4.75
2022-09-01T04:43:28.858Z,5.82
2022-09-01T04:43:58.009Z,5.35
2022-09-01T04:44:20.984Z,6.90
2022-09-01T04:44:45.677Z,5.28
2022-09-01T04:45:11.446Z,6.70
2022-09-01T04:45:36.641Z,5.07
2022-09-01T04:45:59.867Z,4.60
2022-09-01T04:46:23.118Z,4.60
2022-09-01T04:46:48.476Z,5.13
2022-09-01T04:47:11.914Z,5.70
2022-09-01T04:47:42.180Z,6.78
2022-09-01T04:48:06.104Z,6.57
2022-09-01T04:48:29.559Z,6.82
2022-09-01T04:48:52.950Z,7.07
2022-09-01T04:49:19.740Z,5.80
2022-09-01T04:49:44.873Z,5.78
2022-09-01T04:50:15.129Z,5.50
2022-09-01T04:50:41.123Z,5.38
2022-09-01T04:51:10.629Z,5.10
2022-09-01T04:51:33.417Z,5.70
2022-09-01T04:51:56.228Z,7.07
2022-09-01T04:52:19.071Z,4.70
2022-09-01T04:52:42.442Z,5.18
2022-09-01T04:53:07.151Z,5.50
2022-09-01T04:53:29.980Z,5.43
2022-09-01T04:53:52.855Z,5.35
2022-09-01T04:54:16.381Z,6.82
2022-09-01T04:54:39.231Z,5.50
2022-09-01T04:55:03.355Z,7.18
2022-09-01T04:55:28.851Z,5.43
2022-09-01T04:55:53.886Z,4.80
2022-09-01T04:56:19.744Z,6.22
2022-09-01T04:56:46.246Z,4.90
2022-09-01T04:57:09.121Z,5.50
2022-09-01T04:57:31.951Z,4.80
2022-09-01T04:57:54.980Z,4.57
2022-09-01T04:58:18.827Z,5.00
2022-09-01T04:58:41.579Z,4.50
2022-09-01T04:59:07.420Z,4.10
2022-09-01T04:59:31.085Z,4.22
2022-09-01T04:59:56.360Z,3.90
2022-09-01T05:00:23.317Z,4.15
2022-09-01T05:00:52.371Z,4.25
2022-09-01T05:01:16.618Z,5.00
2022-09-01T05:01:45.435Z,3.78
2022-09-01T05:02:09.640Z,4.78
2022-09-01T05:02:32.936Z,4.10
2022-09-01T05:03:03.555Z,4.07
2022-09-01T05:03:26.297Z,4.63
2022-09-01T05:03:56.720Z,4.40
2022-09-01T05:04:21.383Z,4.93
2022-09-01T05:04:46.607Z,5.53
2022-09-01T05:05:12.885Z,4.50
2022-09-01T05:05:40.028Z,5.60
2022-09-01T05:06:04.093Z,4.38
2022-09-01T05:06:27.727Z,4.63
2022-09-01T05:06:53.328Z,4.78
2022-09-01T05:07:17.629Z,5.95
2022-09-01T05:07:40.468Z,4.50
2022-09-01T05:08:03.583Z,3.90
2022-09-01T05:08:29.074Z,4.47
2022-09-01T05:08:57.897Z,4.43
2022-09-01T05:09:20.830Z,4.20
2022-09-01T05:09:45.191Z,4.35
2022-09-01T05:10:09.426Z,4.75
2022-09-01T05:10:34.776Z,4.63
2022-09-01T05:10:57.784Z,4.90
2022-09-01T05:11:21.221Z,6.90
2022-09-01T05:11:46.460Z,5.43
2022-09-01T05:12:15.729Z,4.28
2022-09-01T05:12:39.232Z,5.43
2022-09-01T05:13:02.041Z,6.30
2022-09-01T05:13:25.058Z,6.22
2022-09-01T05:13:48.657Z,4.70
2022-09-01T05:14:12.713Z,6.22
2022-09-01T05:14:35.737Z,4.80
2022-09-01T05:14:58.457Z,4.25
2022-09-01T05:15:21.857Z,5.53
2022-09-01T05:15:48.531Z,5.15
2022-09-01T05:16:13.442Z,6.22
2022-09-01T05:16:38.028Z,5.03
2022-09-01T05:17:02.298Z,5.32
2022-09-01T05:17:29.546Z,5.63
2022-09-01T05:17:55.116Z,5.03
2022-09-01T05:18:23.552Z,4.22
2022-09-01T05:18:48.012Z,6.13
2022-09-01T05:19:14.917Z,4.28
2022-09-01T05:19:38.484Z,5.20
2022-09-01T05:20:02.142Z,4.60
2022-09-01T05:20:25.505Z,4.10
2022-09-01T05:20:48.259Z,4.10
2022-09-01T05:21:11.136Z,3.97
2022-09-01T05:21:34.165Z,5.68
2022-09-01T05:21:58.346Z,4.70
2022-09-01T05:22:22.436Z,4.22
2022-09-01T05:22:45.402Z,3.83
2022-09-01T05:23:09.363Z,4.38
2022-09-01T05:23:36.637Z,4.53
2022-09-01T05:24:01.583Z,4.30
2022-09-01T05:24:32.240Z,5.15
2022-09-01T05:24:55.507Z,4.53
2022-09-01T05:25:18.736Z,5.20
2022-09-01T05:25:42.093Z,4.57
2022-09-01T05:26:14.960Z,5.22
2022-09-01T05:26:40.870Z,5.43
2022-09-01T05:27:06.297Z,5.43
2022-09-01T05:27:29.803Z,4.57
2022-09-01T05:27:52.893Z,3.85
2022-09-01T05:28:15.778Z,3.78
2022-09-01T05:28:38.634Z,3.80
2022-09-01T05:29:03.423Z,4.05
2022-09-01T05:29:27.936Z,5.60
2022-09-01T05:29:50.823Z,4.13